Terminal Aerodrome Forecast
Issued by NWS

Home | Current Version | Previous Version | Text Only | Print | Product List | Glossary On
Versions: 1 2 3 4 5 6 7 8 9 10 11 12 13 14 15 16 17 18 19 20 21 22 23 24 25 26 27 28 29 30
000
FTUS43 KPAH 271120
TAFOWB
TAF
KOWB 271120Z 2712/2812 32008KT P6SM VCSH SCT007 BKN015
     FM271400 34011KT P6SM SCT015 BKN025
      TEMPO 2714/2717 BKN015
     FM271900 34012KT P6SM BKN025
     FM272100 33008KT P6SM BKN035
     FM280000 33006KT P6SM SCT035
     FM280300 VRB02KT P6SM SKC=

USA.gov is the U.S. government's official web portal to all federal, state and local government web resources and services.